createdAt,value
2017-12-22T00:00:42.504Z,0
2017-12-22T00:01:43.721Z,0
2017-12-22T00:02:42.411Z,0
2017-12-22T00:03:42.659Z,0
2017-12-22T00:04:42.685Z,0
2017-12-22T00:05:42.629Z,0
2017-12-22T00:06:42.371Z,0
2017-12-22T00:07:42.637Z,0
2017-12-22T00:08:42.405Z,0
2017-12-22T00:09:42.351Z,0
2017-12-22T00:10:42.611Z,0
2017-12-22T00:11:42.401Z,0
2017-12-22T00:12:42.392Z,0
2017-12-22T00:13:42.602Z,0
2017-12-22T00:14:42.580Z,0
2017-12-22T00:15:42.638Z,0
2017-12-22T00:16:42.078Z,0
2017-12-22T00:17:42.315Z,0
2017-12-22T00:18:42.433Z,0
2017-12-22T00:19:42.558Z,0
2017-12-22T00:20:42.567Z,0
2017-12-22T00:21:42.348Z,0
2017-12-22T00:22:42.298Z,0
2017-12-22T00:23:42.278Z,0
2017-12-22T00:24:42.525Z,0
2017-12-22T00:25:42.537Z,0
2017-12-22T00:26:42.536Z,0
2017-12-22T00:27:42.512Z,0
2017-12-22T00:28:42.508Z,0
2017-12-22T00:29:42.506Z,0
2017-12-22T00:30:42.503Z,0
2017-12-22T00:31:45.647Z,0
2017-12-22T00:32:42.482Z,0
2017-12-22T00:33:42.226Z,0
2017-12-22T00:34:42.224Z,0
2017-12-22T00:35:42.252Z,0
2017-12-22T00:36:42.220Z,0
2017-12-22T00:37:42.454Z,0
2017-12-22T00:38:42.194Z,0
2017-12-22T00:39:42.511Z,0
2017-12-22T00:40:42.192Z,0
2017-12-22T00:41:42.435Z,0
2017-12-22T00:42:42.427Z,0
2017-12-22T00:43:42.176Z,0
2017-12-22T00:44:42.425Z,0
2017-12-22T00:45:41.915Z,0
2017-12-22T00:46:42.400Z,0
2017-12-22T00:47:42.153Z,0
2017-12-22T00:48:42.146Z,0
2017-12-22T00:49:42.391Z,0
2017-12-22T00:50:42.386Z,0
2017-12-22T00:51:42.369Z,0
2017-12-22T00:52:42.366Z,0
2017-12-22T00:53:42.372Z,0
2017-12-22T00:54:42.108Z,0
2017-12-22T00:55:42.351Z,0
2017-12-22T00:56:42.343Z,0
2017-12-22T00:57:42.343Z,0
2017-12-22T00:58:42.089Z,0
2017-12-22T00:59:42.333Z,0
2017-12-22T01:00:42.341Z,0
2017-12-22T01:01:42.333Z,0
2017-12-22T01:02:44.170Z,0
2017-12-22T01:03:42.318Z,0
2017-12-22T01:04:41.816Z,0
2017-12-22T01:05:42.303Z,0
2017-12-22T01:06:42.043Z,0
2017-12-22T01:07:42.289Z,0
2017-12-22T01:08:42.290Z,0
2017-12-22T01:09:42.048Z,0
2017-12-22T01:10:42.278Z,0
2017-12-22T01:11:42.270Z,0
2017-12-22T01:12:42.270Z,0
2017-12-22T01:13:42.284Z,0
2017-12-22T01:14:42.253Z,0
2017-12-22T01:15:42.262Z,0
2017-12-22T01:16:42.014Z,0
2017-12-22T01:17:42.257Z,0
2017-12-22T01:18:42.233Z,0
2017-12-22T01:19:41.972Z,0
2017-12-22T01:20:42.225Z,0
2017-12-22T01:21:41.970Z,0
2017-12-22T01:22:42.210Z,0
2017-12-22T01:23:42.205Z,0
2017-12-22T01:24:42.197Z,0
2017-12-22T01:25:41.939Z,0
2017-12-22T01:26:42.190Z,0
2017-12-22T01:27:41.957Z,0
2017-12-22T01:28:41.931Z,0
2017-12-22T01:29:41.912Z,0
2017-12-22T01:30:42.175Z,0
2017-12-22T01:31:41.924Z,0
2017-12-22T01:32:44.854Z,0
2017-12-22T01:33:42.150Z,0
2017-12-22T01:34:41.891Z,0
2017-12-22T01:35:42.138Z,0
2017-12-22T01:36:41.626Z,0
2017-12-22T01:37:41.872Z,0
2017-12-22T01:38:42.124Z,0
2017-12-22T01:39:41.604Z,0
2017-12-22T01:40:41.623Z,0
2017-12-22T01:41:41.864Z,0
2017-12-22T01:42:42.103Z,0
2017-12-22T01:43:42.096Z,0
2017-12-22T01:44:42.160Z,0
2017-12-22T01:45:42.088Z,0
2017-12-22T01:46:42.082Z,0
2017-12-22T01:47:42.070Z,0
2017-12-22T01:48:41.817Z,0
2017-12-22T01:49:42.073Z,0
2017-12-22T01:50:42.060Z,0
2017-12-22T01:51:42.049Z,0
2017-12-22T01:52:42.074Z,0
2017-12-22T01:53:42.038Z,0
2017-12-22T01:54:42.037Z,0
2017-12-22T01:55:42.039Z,0
2017-12-22T01:56:42.020Z,0
2017-12-22T01:57:42.029Z,0
2017-12-22T01:58:42.014Z,0
2017-12-22T01:59:41.760Z,0
2017-12-22T02:00:42.009Z,0
2017-12-22T02:01:41.995Z,0
2017-12-22T02:02:41.729Z,0
2017-12-22T02:03:42.175Z,0
2017-12-22T02:04:41.729Z,0
2017-12-22T02:05:41.968Z,0
2017-12-22T02:06:41.970Z,0
2017-12-22T02:07:41.960Z,0
2017-12-22T02:08:41.965Z,0
2017-12-22T02:09:41.956Z,0
2017-12-22T02:10:41.956Z,0
2017-12-22T02:11:41.681Z,0
2017-12-22T02:12:41.937Z,0
2017-12-22T02:13:41.924Z,0
2017-12-22T02:14:41.669Z,0
2017-12-22T02:15:41.918Z,0
2017-12-22T02:16:41.654Z,0
2017-12-22T02:17:41.901Z,0
2017-12-22T02:18:41.903Z,0
2017-12-22T02:19:41.901Z,0
2017-12-22T02:20:41.898Z,0
2017-12-22T02:21:41.880Z,0
2017-12-22T02:22:41.647Z,0
2017-12-22T02:23:41.374Z,0
2017-12-22T02:24:41.864Z,0
2017-12-22T02:25:41.866Z,0
2017-12-22T02:26:41.595Z,0
2017-12-22T02:27:41.843Z,0
2017-12-22T02:28:41.840Z,0
2017-12-22T02:29:41.331Z,0
2017-12-22T02:30:41.836Z,0
2017-12-22T02:31:41.839Z,0
2017-12-22T02:32:41.575Z,0
2017-12-22T02:33:42.877Z,0
2017-12-22T02:34:41.551Z,0
2017-12-22T02:35:41.555Z,0
2017-12-22T02:36:41.804Z,0
2017-12-22T02:37:41.552Z,0
2017-12-22T02:38:41.529Z,0
2017-12-22T02:39:41.775Z,0
2017-12-22T02:40:41.582Z,0
2017-12-22T02:41:41.529Z,0
2017-12-22T02:42:41.523Z,0
2017-12-22T02:43:41.759Z,0
2017-12-22T02:44:41.499Z,0
2017-12-22T02:45:41.748Z,0
2017-12-22T02:46:41.491Z,0
2017-12-22T02:47:41.498Z,0
2017-12-22T02:48:41.754Z,0
2017-12-22T02:49:41.742Z,0
2017-12-22T02:50:41.474Z,0
2017-12-22T02:51:41.715Z,0
2017-12-22T02:52:41.457Z,0
2017-12-22T02:53:41.704Z,0
2017-12-22T02:54:41.221Z,0
2017-12-22T02:55:41.444Z,0
2017-12-22T02:56:41.446Z,0
2017-12-22T02:57:41.676Z,0
2017-12-22T02:58:41.419Z,0
2017-12-22T02:59:41.683Z,0
2017-12-22T03:00:41.418Z,0
2017-12-22T03:01:41.654Z,0
2017-12-22T03:02:41.655Z,0
2017-12-22T03:03:45.407Z,0
2017-12-22T03:04:41.414Z,0
2017-12-22T03:05:41.634Z,0
2017-12-22T03:06:41.379Z,0
2017-12-22T03:07:41.125Z,0
2017-12-22T03:08:41.365Z,0
2017-12-22T03:09:41.362Z,0
2017-12-22T03:10:41.622Z,0
2017-12-22T03:11:41.412Z,0
2017-12-22T03:12:41.599Z,0
2017-12-22T03:13:41.602Z,0
2017-12-22T03:14:41.600Z,0
2017-12-22T03:15:41.582Z,0
2017-12-22T03:16:41.075Z,0
2017-12-22T03:17:41.334Z,0
2017-12-22T03:18:41.572Z,0
2017-12-22T03:19:41.681Z,0
2017-12-22T03:20:41.668Z,0
2017-12-22T03:21:41.566Z,0
2017-12-22T03:22:41.288Z,0
2017-12-22T03:23:41.545Z,0
2017-12-22T03:24:41.531Z,0
2017-12-22T03:25:41.526Z,0
2017-12-22T03:26:41.530Z,0
2017-12-22T03:27:41.520Z,0
2017-12-22T03:28:41.517Z,0
2017-12-22T03:29:41.518Z,0
2017-12-22T03:30:41.526Z,0
2017-12-22T03:31:41.244Z,0
2017-12-22T03:32:41.490Z,0
2017-12-22T03:33:41.244Z,0
2017-12-22T03:34:42.741Z,0
2017-12-22T03:35:41.273Z,0
2017-12-22T03:36:41.469Z,0
2017-12-22T03:37:41.463Z,0
2017-12-22T03:38:41.232Z,0
2017-12-22T03:39:41.207Z,0
2017-12-22T03:40:41.460Z,0
2017-12-22T03:41:41.220Z,0
2017-12-22T03:42:41.189Z,0
2017-12-22T03:43:41.182Z,0
2017-12-22T03:44:41.179Z,0
2017-12-22T03:45:41.172Z,0
2017-12-22T03:46:41.169Z,0
2017-12-22T03:47:41.169Z,0
2017-12-22T03:48:41.161Z,0
2017-12-22T03:49:41.156Z,0
2017-12-22T03:50:41.411Z,0
2017-12-22T03:51:41.163Z,0
2017-12-22T03:52:41.139Z,0
2017-12-22T03:53:41.137Z,0
2017-12-22T03:54:41.373Z,0
2017-12-22T03:55:41.373Z,0
2017-12-22T03:56:41.366Z,0
2017-12-22T03:57:40.858Z,0
2017-12-22T03:58:41.115Z,0
2017-12-22T03:59:41.366Z,0
2017-12-22T04:00:41.354Z,0
2017-12-22T04:01:41.104Z,0
2017-12-22T04:02:41.356Z,0
2017-12-22T04:03:41.076Z,0
2017-12-22T04:04:41.331Z,0
2017-12-22T04:05:41.070Z,0
2017-12-22T04:06:41.065Z,0
2017-12-22T04:07:41.317Z,0
2017-12-22T04:08:41.304Z,0
2017-12-22T04:09:41.049Z,0
2017-12-22T04:10:41.300Z,0
2017-12-22T04:11:41.041Z,0
2017-12-22T04:12:41.286Z,0
2017-12-22T04:13:41.288Z,0
2017-12-22T04:14:41.270Z,0
2017-12-22T04:15:41.270Z,0
2017-12-22T04:16:41.272Z,0
2017-12-22T04:17:41.272Z,0
2017-12-22T04:18:41.009Z,0
2017-12-22T04:19:40.997Z,0
2017-12-22T04:20:41.253Z,0
2017-12-22T04:21:41.242Z,0
2017-12-22T04:22:40.982Z,0
2017-12-22T04:23:40.989Z,0
2017-12-22T04:24:41.228Z,0
2017-12-22T04:25:41.232Z,0
2017-12-22T04:26:41.217Z,0
2017-12-22T04:27:41.215Z,0
2017-12-22T04:28:40.954Z,0
2017-12-22T04:29:40.955Z,0
2017-12-22T04:30:41.204Z,0
2017-12-22T04:31:41.189Z,0
2017-12-22T04:32:41.189Z,0
2017-12-22T04:33:40.921Z,0
2017-12-22T04:34:45.724Z,0
2017-12-22T04:35:41.166Z,0
2017-12-22T04:36:41.163Z,0
2017-12-22T04:37:40.913Z,0
2017-12-22T04:38:41.152Z,0
2017-12-22T04:39:41.148Z,0
2017-12-22T04:40:40.638Z,0
2017-12-22T04:41:41.148Z,0
2017-12-22T04:42:41.132Z,0
2017-12-22T04:43:41.131Z,0
2017-12-22T04:44:41.130Z,0
2017-12-22T04:45:40.859Z,0
2017-12-22T04:46:41.114Z,0
2017-12-22T04:47:41.106Z,0
2017-12-22T04:48:41.111Z,0
2017-12-22T04:49:42.046Z,0
2017-12-22T04:50:40.587Z,0
2017-12-22T04:51:41.084Z,0
2017-12-22T04:52:40.827Z,0
2017-12-22T04:53:41.086Z,0
2017-12-22T04:54:41.069Z,0
2017-12-22T04:55:40.814Z,0
2017-12-22T04:56:41.063Z,0
2017-12-22T04:57:41.066Z,0
2017-12-22T04:58:41.089Z,0
2017-12-22T04:59:40.788Z,0
2017-12-22T05:00:41.046Z,0
2017-12-22T05:01:41.065Z,0
2017-12-22T05:02:41.035Z,0
2017-12-22T05:03:41.020Z,0
2017-12-22T05:04:41.019Z,0
2017-12-22T05:05:41.014Z,0
2017-12-22T05:06:41.004Z,0
2017-12-22T05:07:41.001Z,0
2017-12-22T05:08:40.500Z,0
2017-12-22T05:09:40.742Z,0
2017-12-22T05:10:40.742Z,0
2017-12-22T05:11:40.986Z,0
2017-12-22T05:12:40.739Z,0
2017-12-22T05:13:40.726Z,0
2017-12-22T05:14:40.961Z,0
2017-12-22T05:15:40.967Z,0
2017-12-22T05:16:40.966Z,0
2017-12-22T05:17:40.954Z,0
2017-12-22T05:18:40.964Z,0
2017-12-22T05:19:40.949Z,0
2017-12-22T05:20:41.801Z,0
2017-12-22T05:21:40.928Z,0
2017-12-22T05:22:40.930Z,0
2017-12-22T05:23:40.675Z,0
2017-12-22T05:24:40.673Z,0
2017-12-22T05:25:40.665Z,0
2017-12-22T05:26:40.903Z,0
2017-12-22T05:27:40.910Z,0
2017-12-22T05:28:40.654Z,0
2017-12-22T05:29:40.910Z,0
2017-12-22T05:30:40.888Z,0
2017-12-22T05:31:40.630Z,0
2017-12-22T05:32:40.875Z,0
2017-12-22T05:33:40.357Z,0
2017-12-22T05:34:40.358Z,0
2017-12-22T05:35:42.455Z,0
2017-12-22T05:36:40.849Z,0
2017-12-22T05:37:40.593Z,0
2017-12-22T05:38:40.836Z,0
2017-12-22T05:39:40.585Z,0
2017-12-22T05:40:40.832Z,0
2017-12-22T05:41:40.570Z,0
2017-12-22T05:42:40.815Z,0
2017-12-22T05:43:40.816Z,0
2017-12-22T05:44:40.800Z,0
2017-12-22T05:45:40.797Z,0
2017-12-22T05:46:40.800Z,0
2017-12-22T05:47:40.534Z,0
2017-12-22T05:48:40.797Z,0
2017-12-22T05:49:40.793Z,0
2017-12-22T05:50:41.674Z,0
2017-12-22T05:51:40.774Z,0
2017-12-22T05:52:40.768Z,0
2017-12-22T05:53:40.542Z,0
2017-12-22T05:54:40.499Z,0
2017-12-22T05:55:40.493Z,0
2017-12-22T05:56:40.747Z,0
2017-12-22T05:57:40.734Z,0
2017-12-22T05:58:40.731Z,0
2017-12-22T05:59:40.734Z,0
2017-12-22T06:00:40.908Z,0
2017-12-22T06:01:40.226Z,0
2017-12-22T06:02:40.722Z,0
2017-12-22T06:03:40.708Z,0
2017-12-22T06:04:40.470Z,0
2017-12-22T06:05:40.436Z,0
2017-12-22T06:06:40.688Z,0
2017-12-22T06:07:40.683Z,0
2017-12-22T06:08:40.676Z,0
2017-12-22T06:09:40.678Z,0
2017-12-22T06:10:40.425Z,0
2017-12-22T06:11:40.662Z,0
2017-12-22T06:12:40.666Z,0
2017-12-22T06:13:40.662Z,0
2017-12-22T06:14:40.145Z,0
2017-12-22T06:15:40.646Z,0
2017-12-22T06:16:40.645Z,0
2017-12-22T06:17:40.122Z,0
2017-12-22T06:18:40.379Z,0
2017-12-22T06:19:40.114Z,0
2017-12-22T06:20:40.621Z,0
2017-12-22T06:21:41.720Z,0
2017-12-22T06:22:40.602Z,0
2017-12-22T06:23:40.609Z,0
2017-12-22T06:24:40.338Z,0
2017-12-22T06:25:40.600Z,0
2017-12-22T06:26:40.324Z,0
2017-12-22T06:27:40.574Z,0
2017-12-22T06:28:40.569Z,0
2017-12-22T06:29:40.565Z,0
2017-12-22T06:30:40.560Z,0
2017-12-22T06:31:40.584Z,0
2017-12-22T06:32:40.556Z,0
2017-12-22T06:33:40.035Z,0
2017-12-22T06:34:40.346Z,0
2017-12-22T06:35:40.581Z,0
2017-12-22T06:36:43.780Z,0
2017-12-22T06:37:40.529Z,0
2017-12-22T06:38:40.271Z,0
2017-12-22T06:39:40.273Z,0
2017-12-22T06:40:40.252Z,0
2017-12-22T06:41:40.516Z,0
2017-12-22T06:42:40.545Z,0
2017-12-22T06:43:40.550Z,0
2017-12-22T06:44:40.488Z,4
2017-12-22T06:45:40.272Z,4
2017-12-22T06:46:40.478Z,4
2017-12-22T06:47:40.231Z,0
2017-12-22T06:48:40.211Z,0
2017-12-22T06:49:40.467Z,4
2017-12-22T06:50:40.465Z,4
2017-12-22T06:51:42.348Z,4
2017-12-22T06:52:40.188Z,4
2017-12-22T06:53:40.451Z,4
2017-12-22T06:54:40.192Z,4
2017-12-22T06:55:40.212Z,8
2017-12-22T06:56:40.424Z,4
2017-12-22T06:57:40.166Z,8
2017-12-22T06:58:40.423Z,8
2017-12-22T06:59:40.410Z,8
2017-12-22T07:00:40.409Z,12
2017-12-22T07:01:40.410Z,12
2017-12-22T07:02:40.401Z,16
2017-12-22T07:03:40.182Z,16
2017-12-22T07:04:40.389Z,20
2017-12-22T07:05:40.133Z,20
2017-12-22T07:06:40.124Z,24
2017-12-22T07:07:40.126Z,28
2017-12-22T07:08:39.867Z,28
2017-12-22T07:09:40.106Z,32
2017-12-22T07:10:40.154Z,36
2017-12-22T07:11:40.163Z,40
2017-12-22T07:12:40.096Z,44
2017-12-22T07:13:39.831Z,48
2017-12-22T07:14:40.332Z,56
2017-12-22T07:15:40.078Z,60
2017-12-22T07:16:40.325Z,64
2017-12-22T07:17:40.068Z,64
2017-12-22T07:18:40.077Z,68
2017-12-22T07:19:40.312Z,68
2017-12-22T07:20:40.306Z,76
2017-12-22T07:21:40.301Z,80
2017-12-22T07:22:40.045Z,88
2017-12-22T07:23:40.294Z,96
2017-12-22T07:24:40.046Z,100
2017-12-22T07:25:40.272Z,104
2017-12-22T07:26:40.275Z,112
2017-12-22T07:27:40.274Z,124
2017-12-22T07:28:40.256Z,136
2017-12-22T07:29:40.273Z,148
2017-12-22T07:30:40.260Z,156
2017-12-22T07:31:39.736Z,168
2017-12-22T07:32:39.988Z,180
2017-12-22T07:33:40.233Z,192
2017-12-22T07:34:40.226Z,208
2017-12-22T07:35:40.218Z,228
2017-12-22T07:36:39.961Z,244
2017-12-22T07:37:43.473Z,260
2017-12-22T07:38:40.205Z,272
2017-12-22T07:39:39.953Z,284
2017-12-22T07:40:39.947Z,300
2017-12-22T07:41:39.678Z,312
2017-12-22T07:42:39.926Z,332
2017-12-22T07:43:40.196Z,348
2017-12-22T07:44:39.917Z,372
2017-12-22T07:45:40.170Z,396
2017-12-22T07:46:40.163Z,416
2017-12-22T07:47:39.907Z,432
2017-12-22T07:48:39.652Z,432
2017-12-22T07:49:39.893Z,440
2017-12-22T07:50:39.894Z,460
2017-12-22T07:51:39.893Z,492
2017-12-22T07:52:40.946Z,520
2017-12-22T07:53:39.874Z,564
2017-12-22T07:54:40.213Z,600
2017-12-22T07:55:39.895Z,620
2017-12-22T07:56:39.900Z,644
2017-12-22T07:57:40.115Z,660
2017-12-22T07:58:40.097Z,664
2017-12-22T07:59:39.848Z,676
2017-12-22T08:00:39.836Z,692
2017-12-22T08:01:40.093Z,716
2017-12-22T08:02:39.834Z,740
2017-12-22T08:03:40.085Z,764
2017-12-22T08:04:40.070Z,784
2017-12-22T08:05:39.561Z,800
2017-12-22T08:06:40.069Z,808
2017-12-22T08:07:40.055Z,824
2017-12-22T08:08:39.795Z,844
2017-12-22T08:09:40.054Z,864
2017-12-22T08:10:39.847Z,916
2017-12-22T08:11:40.032Z,948
2017-12-22T08:12:40.037Z,976
2017-12-22T08:13:40.022Z,1004
2017-12-22T08:14:39.760Z,1004
2017-12-22T08:15:39.763Z,996
2017-12-22T08:16:39.501Z,976
2017-12-22T08:17:40.010Z,940
2017-12-22T08:18:39.996Z,896
2017-12-22T08:19:40.018Z,856
2017-12-22T08:20:39.989Z,820
2017-12-22T08:21:40.030Z,784
2017-12-22T08:22:39.974Z,756
2017-12-22T08:23:41.029Z,728
2017-12-22T08:24:39.718Z,708
2017-12-22T08:25:39.968Z,688
2017-12-22T08:26:39.760Z,664
2017-12-22T08:27:39.701Z,648
2017-12-22T08:28:39.946Z,640
2017-12-22T08:29:39.448Z,640
2017-12-22T08:30:39.498Z,644
2017-12-22T08:31:40.009Z,660
2017-12-22T08:32:39.938Z,676
2017-12-22T08:33:39.977Z,696
2017-12-22T08:34:39.930Z,708
2017-12-22T08:35:39.916Z,716
2017-12-22T08:37:11.774Z,744
2017-12-22T08:37:39.918Z,752
2017-12-22T08:38:42.352Z,784
2017-12-22T08:39:39.386Z,828
2017-12-22T08:40:39.894Z,888
2017-12-22T08:41:39.382Z,936
2017-12-22T08:42:39.880Z,968
2017-12-22T08:43:39.875Z,992
2017-12-22T08:44:39.626Z,992
2017-12-22T08:45:39.622Z,1000
2017-12-22T08:46:39.867Z,984
2017-12-22T08:47:39.854Z,952
2017-12-22T08:48:39.849Z,932
2017-12-22T08:49:39.847Z,928
2017-12-22T08:50:39.852Z,928
2017-12-22T08:51:39.585Z,940
2017-12-22T08:52:39.842Z,968
2017-12-22T08:53:40.427Z,1016
2017-12-22T08:54:39.825Z,1068
2017-12-22T08:55:39.825Z,1120
2017-12-22T08:56:39.592Z,1184
2017-12-22T08:57:39.604Z,1260
2017-12-22T08:58:39.817Z,1336
2017-12-22T08:59:39.601Z,1420
2017-12-22T09:00:39.541Z,1528
2017-12-22T09:01:39.815Z,1644
2017-12-22T09:02:39.561Z,1752
2017-12-22T09:03:39.789Z,1864
2017-12-22T09:04:39.791Z,1952
2017-12-22T09:05:39.517Z,2052
2017-12-22T09:06:39.782Z,2152
2017-12-22T09:07:39.572Z,2236
2017-12-22T09:08:39.760Z,2240
2017-12-22T09:09:39.761Z,2192
2017-12-22T09:10:39.755Z,2088
2017-12-22T09:11:39.763Z,1948
2017-12-22T09:12:39.504Z,1768
2017-12-22T09:13:39.497Z,1572
2017-12-22T09:14:39.749Z,1380
2017-12-22T09:15:39.748Z,1220
2017-12-22T09:16:39.730Z,1112
2017-12-22T09:17:39.484Z,1048
2017-12-22T09:18:39.722Z,980
2017-12-22T09:19:39.712Z,916
2017-12-22T09:20:39.465Z,848
2017-12-22T09:21:39.713Z,784
2017-12-22T09:22:39.715Z,740
2017-12-22T09:23:39.463Z,744
2017-12-22T09:24:41.545Z,756
2017-12-22T09:25:39.435Z,792
2017-12-22T09:26:39.691Z,852
2017-12-22T09:27:39.679Z,928
2017-12-22T09:28:39.176Z,1000
2017-12-22T09:29:39.167Z,1052
2017-12-22T09:30:39.695Z,1132
2017-12-22T09:31:39.205Z,1192
2017-12-22T09:32:39.219Z,1272
2017-12-22T09:33:39.417Z,1352
2017-12-22T09:34:39.401Z,1392
2017-12-22T09:35:39.707Z,1400
2017-12-22T09:36:39.394Z,1416
2017-12-22T09:37:39.656Z,1492
2017-12-22T09:38:39.386Z,1540
2017-12-22T09:39:42.109Z,1556
2017-12-22T09:40:39.180Z,1584
2017-12-22T09:41:39.622Z,1604
2017-12-22T09:42:39.623Z,1580
2017-12-22T09:43:39.618Z,1532
2017-12-22T09:44:39.678Z,1496
2017-12-22T09:45:39.661Z,1432
2017-12-22T09:46:39.099Z,1388
2017-12-22T09:47:39.655Z,1360
2017-12-22T09:48:39.091Z,1336
2017-12-22T09:49:39.086Z,1388
2017-12-22T09:50:39.328Z,1428
2017-12-22T09:51:39.574Z,1472
2017-12-22T09:52:39.319Z,1544
2017-12-22T09:53:39.721Z,1556
2017-12-22T09:54:39.380Z,1576
2017-12-22T09:55:39.065Z,1608
2017-12-22T09:56:39.554Z,1588
2017-12-22T09:57:39.305Z,1540
2017-12-22T09:58:39.553Z,1436
2017-12-22T09:59:39.296Z,1356
2017-12-22T10:00:39.286Z,1304
2017-12-22T10:01:39.539Z,1288
2017-12-22T10:02:39.276Z,1300
2017-12-22T10:03:39.272Z,1312
2017-12-22T10:04:39.522Z,1308
2017-12-22T10:05:39.313Z,1292
2017-12-22T10:06:39.273Z,1324
2017-12-22T10:07:39.012Z,1392
2017-12-22T10:08:38.999Z,1488
2017-12-22T10:09:39.026Z,1588
2017-12-22T10:10:39.498Z,1680
2017-12-22T10:11:38.738Z,1728
2017-12-22T10:12:39.498Z,1772
2017-12-22T10:13:39.492Z,1776
2017-12-22T10:14:39.491Z,1748
2017-12-22T10:15:39.223Z,1656
2017-12-22T10:16:39.037Z,1592
2017-12-22T10:17:39.224Z,1540
2017-12-22T10:18:39.469Z,1496
2017-12-22T10:19:39.229Z,1480
2017-12-22T10:20:39.694Z,1476
2017-12-22T10:21:39.203Z,1464
2017-12-22T10:52:18.880Z,2060
2017-12-22T10:53:18.330Z,2096
2017-12-22T10:54:18.062Z,2064
2017-12-22T10:55:19.390Z,1968
2017-12-22T10:56:17.816Z,1960
2017-12-22T10:57:18.729Z,1944
2017-12-22T10:58:18.280Z,1824
2017-12-22T10:59:18.007Z,1780
2017-12-22T11:00:19.358Z,1836
2017-12-22T11:01:18.257Z,1896
2017-12-22T11:02:18.497Z,1972
2017-12-22T11:03:17.985Z,2088
2017-12-22T11:04:17.976Z,2200
2017-12-22T11:05:19.224Z,2132
2017-12-22T11:06:17.979Z,2148
2017-12-22T11:07:19.023Z,2056
2017-12-22T11:08:18.224Z,2068
2017-12-22T11:09:18.200Z,2044
2017-12-22T11:10:18.989Z,1968
2017-12-22T11:11:18.209Z,1968
2017-12-22T11:12:20.343Z,1980
2017-12-22T11:13:18.181Z,1940
2017-12-22T11:14:18.184Z,1928
2017-12-22T11:15:19.551Z,2140
2017-12-22T11:16:17.921Z,2196
2017-12-22T11:17:17.407Z,2176
2017-12-22T11:18:17.904Z,2260
2017-12-22T11:19:18.157Z,2232
2017-12-22T11:20:19.527Z,2188
2017-12-22T11:21:18.154Z,2272
2017-12-22T11:22:21.351Z,2304
2017-12-22T11:23:18.157Z,2252
2017-12-22T11:24:18.135Z,2284
2017-12-22T11:25:19.588Z,2344
2017-12-22T11:26:18.145Z,2296
2017-12-22T11:27:18.123Z,2284
2017-12-22T11:28:17.871Z,2332
2017-12-22T11:29:18.112Z,2460
2017-12-22T11:30:18.717Z,2604
2017-12-22T11:31:17.595Z,2652
2017-12-22T11:32:17.847Z,2760
2017-12-22T11:33:18.108Z,2864
2017-12-22T11:34:17.849Z,2872
2017-12-22T11:35:18.565Z,2700
2017-12-22T11:36:18.100Z,2520
2017-12-22T11:37:17.838Z,2452
2017-12-22T11:38:18.094Z,2432
2017-12-22T11:39:17.841Z,2468
2017-12-22T11:40:18.630Z,2540
2017-12-22T11:41:18.084Z,2644
2017-12-22T11:42:18.061Z,2796
2017-12-22T11:43:17.800Z,2992
2017-12-22T11:44:18.053Z,3056
2017-12-22T11:45:19.144Z,2960
2017-12-22T11:46:18.069Z,2832
2017-12-22T11:47:17.549Z,2728
2017-12-22T11:48:18.553Z,2664
2017-12-22T11:49:17.537Z,2604
2017-12-22T11:50:18.950Z,2480
2017-12-22T11:51:17.530Z,2372
2017-12-22T11:52:17.778Z,2232
2017-12-22T11:53:18.591Z,2120
2017-12-22T11:54:17.519Z,2028
2017-12-22T11:55:19.284Z,1964
2017-12-22T11:56:18.029Z,2012
2017-12-22T11:57:17.772Z,2008
2017-12-22T11:58:17.754Z,1932
2017-12-22T11:59:17.763Z,1872
2017-12-22T12:00:19.773Z,1724
2017-12-22T12:01:17.755Z,1640
2017-12-22T12:02:17.740Z,1560
2017-12-22T12:03:17.995Z,1464
2017-12-22T12:04:17.484Z,1420
2017-12-22T12:05:19.311Z,1432
2017-12-22T12:06:17.766Z,1472
2017-12-22T12:07:17.982Z,1516
2017-12-22T12:08:19.130Z,1540
2017-12-22T12:09:17.720Z,1560
2017-12-22T12:10:19.284Z,1596
2017-12-22T12:11:17.722Z,1660
2017-12-22T12:12:17.983Z,1676
2017-12-22T12:13:17.959Z,1752
2017-12-22T12:14:17.701Z,1788
2017-12-22T12:15:18.622Z,1804
2017-12-22T12:16:17.474Z,1844
2017-12-22T12:17:17.703Z,1840
2017-12-22T12:18:17.687Z,1784
2017-12-22T12:19:17.183Z,1780
2017-12-22T12:20:18.739Z,1792
2017-12-22T12:21:17.945Z,1776
2017-12-22T12:22:17.933Z,1732
2017-12-22T12:23:20.135Z,1684
2017-12-22T12:24:17.678Z,1580
2017-12-22T12:25:19.757Z,1452
2017-12-22T12:26:17.663Z,1368
2017-12-22T12:27:17.416Z,1296
2017-12-22T12:28:17.664Z,1256
2017-12-22T12:29:17.663Z,1204
2017-12-22T12:30:18.889Z,1152
2017-12-22T12:31:17.658Z,1116
2017-12-22T12:32:17.647Z,1076
2017-12-22T12:33:17.907Z,1016
2017-12-22T12:34:17.901Z,972
2017-12-22T12:35:19.210Z,940
2017-12-22T12:36:17.887Z,904
2017-12-22T12:37:17.641Z,860
2017-12-22T12:38:17.637Z,848
2017-12-22T12:39:17.168Z,812
2017-12-22T12:40:19.259Z,780
2017-12-22T12:41:17.610Z,756
2017-12-22T12:42:17.877Z,748
2017-12-22T12:43:17.966Z,728
2017-12-22T12:44:17.356Z,704
2017-12-22T12:45:18.779Z,704
2017-12-22T12:46:17.879Z,684
2017-12-22T12:47:17.876Z,652
2017-12-22T12:48:17.583Z,612
2017-12-22T12:49:17.837Z,572
2017-12-22T12:50:18.620Z,540
2017-12-22T12:51:17.855Z,524
2017-12-22T12:52:17.842Z,516
2017-12-22T12:53:17.841Z,512
2017-12-22T12:54:18.480Z,504
2017-12-22T12:55:18.528Z,488
2017-12-22T12:56:17.566Z,476
2017-12-22T12:57:17.821Z,468
2017-12-22T12:58:17.833Z,456
2017-12-22T12:59:17.818Z,452
2017-12-22T13:00:19.481Z,460
2017-12-22T13:01:17.571Z,448
2017-12-22T13:02:17.551Z,432
2017-12-22T13:03:17.803Z,424
2017-12-22T13:04:17.906Z,404
2017-12-22T13:05:18.249Z,400
2017-12-22T13:06:17.790Z,400
2017-12-22T13:07:17.539Z,400
2017-12-22T13:08:17.788Z,404
2017-12-22T13:09:18.137Z,400
2017-12-22T13:10:18.635Z,412
2017-12-22T13:11:17.792Z,416
2017-12-22T13:12:17.786Z,408
2017-12-22T13:13:17.504Z,396
2017-12-22T13:14:17.750Z,396
2017-12-22T13:15:19.475Z,408
2017-12-22T13:16:17.753Z,424
2017-12-22T13:17:17.492Z,432
2017-12-22T13:18:17.746Z,428
2017-12-22T13:19:17.504Z,440
2017-12-22T13:20:18.610Z,484
2017-12-22T13:21:17.481Z,556
2017-12-22T13:22:17.734Z,620
2017-12-22T13:23:17.462Z,660
2017-12-22T13:24:18.830Z,692
2017-12-22T13:25:18.959Z,724
2017-12-22T13:26:17.479Z,756
2017-12-22T13:27:17.730Z,796
2017-12-22T13:28:17.453Z,832
2017-12-22T13:29:17.441Z,860
2017-12-22T13:30:18.742Z,904
2017-12-22T13:31:17.436Z,932
2017-12-22T13:32:17.444Z,940
2017-12-22T13:33:17.688Z,952
2017-12-22T13:34:17.677Z,960
2017-12-22T13:35:18.922Z,968
2017-12-22T13:36:17.675Z,968
2017-12-22T13:37:17.694Z,976
2017-12-22T13:38:17.453Z,1036
2017-12-22T13:39:21.767Z,1084
2017-12-22T13:40:19.294Z,1088
2017-12-22T13:41:17.399Z,1148
2017-12-22T13:42:17.650Z,1188
2017-12-22T13:43:17.656Z,1264
2017-12-22T13:44:17.635Z,1384
2017-12-22T13:45:18.607Z,1380
2017-12-22T13:46:17.672Z,1292
2017-12-22T13:47:17.628Z,1220
2017-12-22T13:48:17.626Z,1116
2017-12-22T13:49:17.636Z,1072
2017-12-22T13:50:18.707Z,1020
2017-12-22T13:51:17.628Z,960
2017-12-22T13:52:17.611Z,976
2017-12-22T13:53:17.372Z,908
2017-12-22T13:54:17.604Z,864
2017-12-22T13:55:19.910Z,768
2017-12-22T13:56:17.593Z,684
2017-12-22T13:57:17.340Z,596
2017-12-22T13:58:17.590Z,532
2017-12-22T13:59:17.585Z,452
2017-12-22T14:00:18.946Z,408
2017-12-22T14:01:17.346Z,380
2017-12-22T14:02:17.337Z,368
2017-12-22T14:03:16.812Z,364
2017-12-22T14:04:17.572Z,368
2017-12-22T14:05:18.645Z,368
2017-12-22T14:06:17.062Z,364
2017-12-22T14:07:17.327Z,340
2017-12-22T14:08:17.556Z,320
2017-12-22T14:09:17.302Z,308
2017-12-22T14:10:22.752Z,280
2017-12-22T14:11:17.548Z,248
2017-12-22T14:12:17.291Z,252
2017-12-22T14:13:17.279Z,244
2017-12-22T14:14:16.784Z,236
2017-12-22T14:15:19.267Z,240
2017-12-22T14:16:17.556Z,224
2017-12-22T14:17:17.284Z,224
2017-12-22T14:18:17.264Z,232
2017-12-22T14:19:16.753Z,240
2017-12-22T14:20:19.276Z,240
2017-12-22T14:21:17.251Z,252
2017-12-22T14:22:17.494Z,264
2017-12-22T14:23:17.250Z,268
2017-12-22T14:24:17.504Z,256
2017-12-22T14:25:18.480Z,244
2017-12-22T14:26:17.490Z,236
2017-12-22T14:27:17.485Z,236
2017-12-22T14:28:17.478Z,224
2017-12-22T14:29:17.229Z,212
2017-12-22T14:30:18.743Z,208
2017-12-22T14:31:17.211Z,200
2017-12-22T14:32:17.470Z,204
2017-12-22T14:33:17.201Z,200
2017-12-22T14:34:17.465Z,192
2017-12-22T14:35:18.422Z,200
2017-12-22T14:36:16.937Z,200
2017-12-22T14:37:17.194Z,204
2017-12-22T14:38:17.437Z,204
2017-12-22T14:39:17.331Z,208